Дата Пункты Температура Давл., мм. Влажн., % Ветер Погодные явления
Воздуха Воды Направл. Скорость
18.03.19 02:00 Одесса 10.0 6.0 760 72 Пд 4 14 ГОДИН
18.03.19 11:00 Одесса 10.0 5.0 760 72 Пд-З 3 11 ГОДИН
18.03.19 08:00 Одесса 8.0 5.0 760 85 Пд-З 3 08 ГОДИН
18.03.19 05:00 Одесса 6.0 6.0 759 92 Пд 2 05 ГОДИН
18.03.19 02:00 Одесса 6.0 6.0 758 86 Пд 2 02 ГОДИНИ
17.03.19 11:00 Одесса 8.0 6.0 758 67 Пд-З 3 23 ГОДИНИ
17.03.19 08:00 Одесса 8.0 6.0 758 71 Пд-З 3 20 ГОДИН
17.03.19 05:00 Одесса 9.0 6.0 757 70 Пд 3 17 ГОДИН
17.03.19 02:00 Одесса 13.0 6.0 757 41 Пн-З 5 14 ГОДИН
17.03.19 11:00 Одесса 11.0 5.0 757 52 З 3 11 ГОДИН
17.03.19 08:00 Одесса 6.0 5.0 756 71 З 1 08 ГОДИН
17.03.19 05:00 Одесса 4.0 5.0 754 76 З 2 05 ГОДИН
17.03.19 02:00 Одесса 5.0 5.0 753 70 Пн-З 2 02 ГОДИНИ
16.03.19 11:00 Одесса 5.0 5.0 752 81 З 3 23 ГОДИНИ
16.03.19 08:00 Одесса 6.0 5.0 751 85 Пн-З 3 20 ГОДИН
16.03.19 05:00 Одесса 5.0 5.0 748 92 Пн 2 17 ГОДИН
16.03.19 02:00 Одесса 9.0 5.0 747 73 Пд-З 2 14 ГОДИН
16.03.19 11:00 Одесса 9.0 5.0 750 74 Пд 3 11 ГОДИН
16.03.19 08:00 Одесса 6.0 5.0 751 88 Пд-З 2 08 ГОДИН
16.03.19 05:00 Одесса 5.0 5.0 752 91 Пд-З 3 05 ГОДИН
Количество строк
1 2 3 4 5 6 7 8 9 10
Page 3 of 472